sensor_id;sensor_type;location;lat;lon;timestamp;P1;durP1;ratioP1;P2;durP2;ratioP2
57461;SDS011;43308;47.306;8.608;2023-05-20T00:00:06;8.73;;;7.68;;
57461;SDS011;43308;47.306;8.608;2023-05-20T00:02:32;9.20;;;7.72;;
57461;SDS011;43308;47.306;8.608;2023-05-20T00:04:58;10.25;;;9.25;;
57461;SDS011;43308;47.306;8.608;2023-05-20T00:07:23;8.57;;;7.65;;
57461;SDS011;43308;47.306;8.608;2023-05-20T00:09:49;12.95;;;9.75;;
57461;SDS011;43308;47.306;8.608;2023-05-20T00:12:15;10.77;;;9.77;;
57461;SDS011;43308;47.306;8.608;2023-05-20T00:14:41;9.55;;;7.82;;
57461;SDS011;43308;47.306;8.608;2023-05-20T00:17:06;11.25;;;9.38;;
57461;SDS011;43308;47.306;8.608;2023-05-20T00:19:32;11.95;;;9.95;;
57461;SDS011;43308;47.306;8.608;2023-05-20T00:21:57;12.35;;;10.43;;
57461;SDS011;43308;47.306;8.608;2023-05-20T00:24:23;11.07;;;9.88;;
57461;SDS011;43308;47.306;8.608;2023-05-20T00:26:49;15.07;;;11.90;;
57461;SDS011;43308;47.306;8.608;2023-05-20T00:29:15;11.30;;;10.15;;
57461;SDS011;43308;47.306;8.608;2023-05-20T00:31:41;12.25;;;9.75;;
57461;SDS011;43308;47.306;8.608;2023-05-20T00:34:07;11.07;;;9.95;;
57461;SDS011;43308;47.306;8.608;2023-05-20T00:36:33;10.77;;;9.48;;
57461;SDS011;43308;47.306;8.608;2023-05-20T00:38:59;12.15;;;10.48;;
57461;SDS011;43308;47.306;8.608;2023-05-20T00:41:25;12.80;;;11.60;;
57461;SDS011;43308;47.306;8.608;2023-05-20T00:43:54;14.07;;;11.55;;
57461;SDS011;43308;47.306;8.608;2023-05-20T00:46:20;12.00;;;10.80;;
57461;SDS011;43308;47.306;8.608;2023-05-20T00:48:50;12.48;;;10.73;;
57461;SDS011;43308;47.306;8.608;2023-05-20T00:51:16;12.85;;;11.48;;
57461;SDS011;43308;47.306;8.608;2023-05-20T00:53:43;13.13;;;11.73;;
57461;SDS011;43308;47.306;8.608;2023-05-20T00:56:09;14.10;;;12.32;;
57461;SDS011;43308;47.306;8.608;2023-05-20T00:58:36;13.23;;;11.73;;
57461;SDS011;43308;47.306;8.608;2023-05-20T01:01:03;12.43;;;11.18;;
57461;SDS011;43308;47.306;8.608;2023-05-20T01:03:30;12.95;;;10.60;;
57461;SDS011;43308;47.306;8.608;2023-05-20T01:05:56;13.25;;;11.75;;
57461;SDS011;43308;47.306;8.608;2023-05-20T01:08:22;12.85;;;11.45;;
57461;SDS011;43308;47.306;8.608;2023-05-20T01:10:51;13.57;;;12.07;;
57461;SDS011;43308;47.306;8.608;2023-05-20T01:13:28;13.23;;;11.38;;
57461;SDS011;43308;47.306;8.608;2023-05-20T01:16:02;13.48;;;10.57;;
57461;SDS011;43308;47.306;8.608;2023-05-20T01:18:28;15.95;;;11.95;;
57461;SDS011;43308;47.306;8.608;2023-05-20T01:20:56;13.43;;;12.02;;
57461;SDS011;43308;47.306;8.608;2023-05-20T01:23:38;14.25;;;12.75;;
57461;SDS011;43308;47.306;8.608;2023-05-20T01:26:07;14.90;;;12.82;;
57461;SDS011;43308;47.306;8.608;2023-05-20T01:28:35;13.30;;;11.73;;
57461;SDS011;43308;47.306;8.608;2023-05-20T01:31:03;11.88;;;10.55;;
57461;SDS011;43308;47.306;8.608;2023-05-20T01:33:33;14.35;;;12.30;;
57461;SDS011;43308;47.306;8.608;2023-05-20T01:36:03;12.85;;;11.55;;
57461;SDS011;43308;47.306;8.608;2023-05-20T01:38:30;11.60;;;10.40;;
57461;SDS011;43308;47.306;8.608;2023-05-20T01:40:57;12.13;;;10.68;;
57461;SDS011;43308;47.306;8.608;2023-05-20T01:43:24;14.18;;;11.65;;
57461;SDS011;43308;47.306;8.608;2023-05-20T01:45:51;16.63;;;13.07;;
57461;SDS011;43308;47.306;8.608;2023-05-20T01:48:16;15.02;;;12.48;;
57461;SDS011;43308;47.306;8.608;2023-05-20T01:50:42;16.10;;;11.50;;
57461;SDS011;43308;47.306;8.608;2023-05-20T01:53:09;11.88;;;10.30;;
57461;SDS011;43308;47.306;8.608;2023-05-20T01:55:34;14.40;;;11.05;;
57461;SDS011;43308;47.306;8.608;2023-05-20T01:58:00;11.60;;;9.95;;
57461;SDS011;43308;47.306;8.608;2023-05-20T02:00:26;12.18;;;10.88;;
57461;SDS011;43308;47.306;8.608;2023-05-20T02:02:52;12.40;;;9.80;;
57461;SDS011;43308;47.306;8.608;2023-05-20T02:05:18;14.70;;;12.63;;
57461;SDS011;43308;47.306;8.608;2023-05-20T02:07:43;13.50;;;10.90;;
57461;SDS011;43308;47.306;8.608;2023-05-20T02:10:09;14.80;;;12.73;;
57461;SDS011;43308;47.306;8.608;2023-05-20T02:12:35;14.15;;;11.18;;
57461;SDS011;43308;47.306;8.608;2023-05-20T02:15:01;14.20;;;10.77;;
57461;SDS011;43308;47.306;8.608;2023-05-20T02:17:26;13.52;;;12.07;;
57461;SDS011;43308;47.306;8.608;2023-05-20T02:19:52;13.80;;;11.73;;
57461;SDS011;43308;47.306;8.608;2023-05-20T02:22:18;13.13;;;11.73;;
57461;SDS011;43308;47.306;8.608;2023-05-20T02:24:44;13.23;;;10.45;;
57461;SDS011;43308;47.306;8.608;2023-05-20T02:27:10;18.27;;;12.88;;
57461;SDS011;43308;47.306;8.608;2023-05-20T02:29:36;18.15;;;13.45;;
57461;SDS011;43308;47.306;8.608;2023-05-20T02:32:01;13.85;;;12.45;;
57461;SDS011;43308;47.306;8.608;2023-05-20T02:34:27;14.63;;;12.55;;
57461;SDS011;43308;47.306;8.608;2023-05-20T02:36:55;15.23;;;13.07;;
57461;SDS011;43308;47.306;8.608;2023-05-20T02:39:21;18.23;;;14.82;;
57461;SDS011;43308;47.306;8.608;2023-05-20T02:41:47;15.25;;;12.30;;
57461;SDS011;43308;47.306;8.608;2023-05-20T02:44:13;17.17;;;14.98;;
57461;SDS011;43308;47.306;8.608;2023-05-20T02:46:38;14.70;;;13.00;;
57461;SDS011;43308;47.306;8.608;2023-05-20T02:49:04;15.20;;;13.50;;
57461;SDS011;43308;47.306;8.608;2023-05-20T02:51:30;15.02;;;13.05;;
57461;SDS011;43308;47.306;8.608;2023-05-20T02:53:57;12.43;;;10.85;;
57461;SDS011;43308;47.306;8.608;2023-05-20T02:56:23;12.30;;;10.88;;
57461;SDS011;43308;47.306;8.608;2023-05-20T02:58:49;14.07;;;12.57;;
57461;SDS011;43308;47.306;8.608;2023-05-20T03:01:15;22.95;;;17.75;;
57461;SDS011;43308;47.306;8.608;2023-05-20T03:03:41;18.30;;;16.17;;
57461;SDS011;43308;47.306;8.608;2023-05-20T03:06:07;21.27;;;16.17;;
57461;SDS011;43308;47.306;8.608;2023-05-20T03:08:32;22.20;;;16.48;;
57461;SDS011;43308;47.306;8.608;2023-05-20T03:10:59;17.27;;;14.18;;
57461;SDS011;43308;47.306;8.608;2023-05-20T03:13:26;21.05;;;14.77;;
57461;SDS011;43308;47.306;8.608;2023-05-20T03:15:52;17.20;;;15.43;;
57461;SDS011;43308;47.306;8.608;2023-05-20T03:18:17;16.63;;;13.57;;
57461;SDS011;43308;47.306;8.608;2023-05-20T03:20:44;18.00;;;15.23;;
57461;SDS011;43308;47.306;8.608;2023-05-20T03:23:11;16.83;;;14.48;;
57461;SDS011;43308;47.306;8.608;2023-05-20T03:25:37;17.48;;;14.05;;
57461;SDS011;43308;47.306;8.608;2023-05-20T03:28:03;16.60;;;14.80;;
57461;SDS011;43308;47.306;8.608;2023-05-20T03:30:32;18.20;;;16.30;;
57461;SDS011;43308;47.306;8.608;2023-05-20T03:32:58;16.48;;;13.75;;
57461;SDS011;43308;47.306;8.608;2023-05-20T03:35:24;19.98;;;15.70;;
57461;SDS011;43308;47.306;8.608;2023-05-20T03:37:50;22.00;;;16.33;;
57461;SDS011;43308;47.306;8.608;2023-05-20T03:40:17;15.57;;;13.70;;
57461;SDS011;43308;47.306;8.608;2023-05-20T03:42:45;13.75;;;12.02;;
57461;SDS011;43308;47.306;8.608;2023-05-20T03:45:12;17.08;;;14.82;;
57461;SDS011;43308;47.306;8.608;2023-05-20T03:47:45;19.90;;;15.93;;
57461;SDS011;43308;47.306;8.608;2023-05-20T03:50:11;17.00;;;12.73;;
57461;SDS011;43308;47.306;8.608;2023-05-20T03:52:37;16.35;;;13.68;;
57461;SDS011;43308;47.306;8.608;2023-05-20T03:55:04;19.50;;;15.63;;
57461;SDS011;43308;47.306;8.608;2023-05-20T03:57:30;15.88;;;14.18;;
57461;SDS011;43308;47.306;8.608;2023-05-20T03:59:56;19.88;;;16.15;;
57461;SDS011;43308;47.306;8.608;2023-05-20T04:02:22;19.65;;;14.45;;
57461;SDS011;43308;47.306;8.608;2023-05-20T04:04:48;18.30;;;15.45;;
57461;SDS011;43308;47.306;8.608;2023-05-20T04:07:18;18.42;;;15.00;;
57461;SDS011;43308;47.306;8.608;2023-05-20T04:09:43;16.45;;;13.13;;
57461;SDS011;43308;47.306;8.608;2023-05-20T04:12:09;17.33;;;15.40;;
57461;SDS011;43308;47.306;8.608;2023-05-20T04:14:35;20.05;;;17.27;;
57461;SDS011;43308;47.306;8.608;2023-05-20T04:17:02;18.30;;;14.63;;
57461;SDS011;43308;47.306;8.608;2023-05-20T04:19:28;17.05;;;13.93;;
57461;SDS011;43308;47.306;8.608;2023-05-20T04:21:54;18.48;;;14.73;;
57461;SDS011;43308;47.306;8.608;2023-05-20T04:24:21;21.13;;;17.42;;
57461;SDS011;43308;47.306;8.608;2023-05-20T04:26:50;19.45;;;17.23;;
57461;SDS011;43308;47.306;8.608;2023-05-20T04:29:16;19.65;;;15.50;;
57461;SDS011;43308;47.306;8.608;2023-05-20T04:31:46;14.52;;;12.73;;
57461;SDS011;43308;47.306;8.608;2023-05-20T04:34:12;17.50;;;15.52;;
57461;SDS011;43308;47.306;8.608;2023-05-20T04:36:38;15.63;;;12.60;;
57461;SDS011;43308;47.306;8.608;2023-05-20T04:39:04;21.58;;;17.20;;
57461;SDS011;43308;47.306;8.608;2023-05-20T04:41:31;17.80;;;14.63;;
57461;SDS011;43308;47.306;8.608;2023-05-20T04:43:57;18.35;;;16.30;;
57461;SDS011;43308;47.306;8.608;2023-05-20T04:46:26;17.88;;;14.70;;
57461;SDS011;43308;47.306;8.608;2023-05-20T04:48:52;15.90;;;13.32;;
57461;SDS011;43308;47.306;8.608;2023-05-20T04:51:18;21.92;;;16.17;;
57461;SDS011;43308;47.306;8.608;2023-05-20T04:53:44;18.00;;;14.02;;
57461;SDS011;43308;47.306;8.608;2023-05-20T04:56:10;18.17;;;15.27;;
57461;SDS011;43308;47.306;8.608;2023-05-20T04:58:36;18.38;;;15.25;;
57461;SDS011;43308;47.306;8.608;2023-05-20T05:01:02;14.63;;;12.77;;
57461;SDS011;43308;47.306;8.608;2023-05-20T05:03:28;17.30;;;14.48;;
57461;SDS011;43308;47.306;8.608;2023-05-20T05:05:56;15.52;;;13.90;;
57461;SDS011;43308;47.306;8.608;2023-05-20T05:08:22;16.45;;;14.75;;
57461;SDS011;43308;47.306;8.608;2023-05-20T05:10:50;14.10;;;12.60;;
57461;SDS011;43308;47.306;8.608;2023-05-20T05:13:16;16.23;;;14.13;;
57461;SDS011;43308;47.306;8.608;2023-05-20T05:15:41;14.55;;;12.48;;
57461;SDS011;43308;47.306;8.608;2023-05-20T05:18:07;16.50;;;13.18;;
57461;SDS011;43308;47.306;8.608;2023-05-20T05:20:34;17.20;;;15.40;;
57461;SDS011;43308;47.306;8.608;2023-05-20T05:22:59;17.40;;;15.70;;
57461;SDS011;43308;47.306;8.608;2023-05-20T05:25:25;17.30;;;14.70;;
57461;SDS011;43308;47.306;8.608;2023-05-20T05:27:51;14.50;;;12.88;;
57461;SDS011;43308;47.306;8.608;2023-05-20T05:30:17;12.70;;;11.40;;
57461;SDS011;43308;47.306;8.608;2023-05-20T05:32:43;15.20;;;13.60;;
57461;SDS011;43308;47.306;8.608;2023-05-20T05:35:08;19.65;;;16.33;;
57461;SDS011;43308;47.306;8.608;2023-05-20T05:37:35;16.33;;;14.65;;
57461;SDS011;43308;47.306;8.608;2023-05-20T05:40:01;13.45;;;11.63;;
57461;SDS011;43308;47.306;8.608;2023-05-20T05:42:27;20.30;;;16.63;;
57461;SDS011;43308;47.306;8.608;2023-05-20T05:44:54;18.95;;;15.98;;
57461;SDS011;43308;47.306;8.608;2023-05-20T05:47:20;18.05;;;15.07;;
57461;SDS011;43308;47.306;8.608;2023-05-20T05:49:45;19.90;;;14.98;;
57461;SDS011;43308;47.306;8.608;2023-05-20T05:52:11;19.08;;;15.80;;
57461;SDS011;43308;47.306;8.608;2023-05-20T05:54:39;18.90;;;14.65;;
57461;SDS011;43308;47.306;8.608;2023-05-20T05:57:05;21.27;;;15.15;;
57461;SDS011;43308;47.306;8.608;2023-05-20T05:59:33;18.63;;;16.65;;
57461;SDS011;43308;47.306;8.608;2023-05-20T06:01:58;18.38;;;15.27;;
57461;SDS011;43308;47.306;8.608;2023-05-20T06:04:24;20.42;;;14.65;;
57461;SDS011;43308;47.306;8.608;2023-05-20T06:06:53;17.70;;;15.77;;
57461;SDS011;43308;47.306;8.608;2023-05-20T06:09:18;16.85;;;15.10;;
57461;SDS011;43308;47.306;8.608;2023-05-20T06:11:44;20.08;;;17.13;;
57461;SDS011;43308;47.306;8.608;2023-05-20T06:14:10;20.50;;;17.35;;
57461;SDS011;43308;47.306;8.608;2023-05-20T06:16:35;20.27;;;18.15;;
57461;SDS011;43308;47.306;8.608;2023-05-20T06:19:01;20.10;;;18.00;;
57461;SDS011;43308;47.306;8.608;2023-05-20T06:21:27;19.40;;;17.38;;
57461;SDS011;43308;47.306;8.608;2023-05-20T06:23:53;18.27;;;15.65;;
57461;SDS011;43308;47.306;8.608;2023-05-20T06:26:18;18.83;;;16.58;;
57461;SDS011;43308;47.306;8.608;2023-05-20T06:28:44;19.25;;;16.52;;
57461;SDS011;43308;47.306;8.608;2023-05-20T06:31:09;21.15;;;18.17;;
57461;SDS011;43308;47.306;8.608;2023-05-20T06:33:35;18.10;;;16.20;;
57461;SDS011;43308;47.306;8.608;2023-05-20T06:36:06;18.75;;;16.85;;
57461;SDS011;43308;47.306;8.608;2023-05-20T06:38:31;18.50;;;16.33;;
57461;SDS011;43308;47.306;8.608;2023-05-20T06:40:57;16.58;;;14.80;;
57461;SDS011;43308;47.306;8.608;2023-05-20T06:43:23;17.48;;;15.77;;
57461;SDS011;43308;47.306;8.608;2023-05-20T06:46:00;18.67;;;15.95;;
57461;SDS011;43308;47.306;8.608;2023-05-20T06:48:30;17.58;;;15.77;;
57461;SDS011;43308;47.306;8.608;2023-05-20T06:50:56;16.20;;;13.35;;
57461;SDS011;43308;47.306;8.608;2023-05-20T06:53:22;17.83;;;14.80;;
57461;SDS011;43308;47.306;8.608;2023-05-20T06:55:48;16.98;;;13.75;;
57461;SDS011;43308;47.306;8.608;2023-05-20T06:58:13;14.60;;;13.02;;
57461;SDS011;43308;47.306;8.608;2023-05-20T07:00:39;15.32;;;13.80;;
57461;SDS011;43308;47.306;8.608;2023-05-20T07:03:06;13.55;;;12.15;;
57461;SDS011;43308;47.306;8.608;2023-05-20T07:05:31;16.50;;;13.68;;
57461;SDS011;43308;47.306;8.608;2023-05-20T07:07:57;14.93;;;11.95;;
57461;SDS011;43308;47.306;8.608;2023-05-20T07:10:23;13.90;;;12.48;;
57461;SDS011;43308;47.306;8.608;2023-05-20T07:12:49;14.75;;;13.00;;
57461;SDS011;43308;47.306;8.608;2023-05-20T07:15:14;13.25;;;11.77;;
57461;SDS011;43308;47.306;8.608;2023-05-20T07:17:41;14.38;;;12.93;;
57461;SDS011;43308;47.306;8.608;2023-05-20T07:20:07;14.10;;;11.55;;
57461;SDS011;43308;47.306;8.608;2023-05-20T07:22:34;13.45;;;11.52;;
57461;SDS011;43308;47.306;8.608;2023-05-20T07:25:35;12.60;;;11.20;;
57461;SDS011;43308;47.306;8.608;2023-05-20T07:28:01;12.73;;;11.43;;
57461;SDS011;43308;47.306;8.608;2023-05-20T07:30:27;13.88;;;11.75;;
57461;SDS011;43308;47.306;8.608;2023-05-20T07:33:11;12.90;;;11.70;;
57461;SDS011;43308;47.306;8.608;2023-05-20T07:35:37;15.27;;;12.90;;
57461;SDS011;43308;47.306;8.608;2023-05-20T07:38:02;14.65;;;12.80;;
57461;SDS011;43308;47.306;8.608;2023-05-20T07:40:28;15.52;;;13.93;;
57461;SDS011;43308;47.306;8.608;2023-05-20T07:42:54;14.88;;;13.38;;
57461;SDS011;43308;47.306;8.608;2023-05-20T07:45:19;17.48;;;14.52;;
57461;SDS011;43308;47.306;8.608;2023-05-20T07:47:45;14.07;;;11.57;;
57461;SDS011;43308;47.306;8.608;2023-05-20T07:50:11;15.63;;;13.10;;
57461;SDS011;43308;47.306;8.608;2023-05-20T07:52:37;14.13;;;11.80;;
57461;SDS011;43308;47.306;8.608;2023-05-20T07:55:03;13.32;;;12.02;;
57461;SDS011;43308;47.306;8.608;2023-05-20T07:57:30;15.52;;;12.23;;
57461;SDS011;43308;47.306;8.608;2023-05-20T07:59:55;14.23;;;12.93;;
57461;SDS011;43308;47.306;8.608;2023-05-20T08:02:21;14.52;;;12.75;;
57461;SDS011;43308;47.306;8.608;2023-05-20T08:04:47;13.43;;;12.13;;
57461;SDS011;43308;47.306;8.608;2023-05-20T08:07:13;12.77;;;11.18;;
57461;SDS011;43308;47.306;8.608;2023-05-20T08:09:46;12.53;;;11.27;;
57461;SDS011;43308;47.306;8.608;2023-05-20T08:12:12;12.13;;;10.85;;
57461;SDS011;43308;47.306;8.608;2023-05-20T08:14:39;10.90;;;9.80;;
57461;SDS011;43308;47.306;8.608;2023-05-20T08:17:04;10.52;;;9.40;;
57461;SDS011;43308;47.306;8.608;2023-05-20T08:19:30;11.52;;;10.43;;
57461;SDS011;43308;47.306;8.608;2023-05-20T08:21:56;11.88;;;10.32;;
57461;SDS011;43308;47.306;8.608;2023-05-20T08:24:21;11.80;;;10.60;;
57461;SDS011;43308;47.306;8.608;2023-05-20T08:26:47;12.57;;;11.15;;
57461;SDS011;43308;47.306;8.608;2023-05-20T08:29:15;9.60;;;8.52;;
57461;SDS011;43308;47.306;8.608;2023-05-20T08:31:40;11.23;;;9.98;;
57461;SDS011;43308;47.306;8.608;2023-05-20T08:34:06;9.68;;;8.80;;
57461;SDS011;43308;47.306;8.608;2023-05-20T08:36:32;10.82;;;9.73;;
57461;SDS011;43308;47.306;8.608;2023-05-20T08:38:58;12.43;;;11.15;;
57461;SDS011;43308;47.306;8.608;2023-05-20T08:41:23;12.00;;;10.90;;
57461;SDS011;43308;47.306;8.608;2023-05-20T08:43:49;12.38;;;10.25;;
57461;SDS011;43308;47.306;8.608;2023-05-20T08:46:17;11.35;;;10.35;;
57461;SDS011;43308;47.306;8.608;2023-05-20T08:48:44;11.20;;;10.10;;
57461;SDS011;43308;47.306;8.608;2023-05-20T08:51:10;11.20;;;10.10;;
57461;SDS011;43308;47.306;8.608;2023-05-20T08:53:36;12.02;;;10.95;;
57461;SDS011;43308;47.306;8.608;2023-05-20T08:56:01;10.95;;;9.88;;
57461;SDS011;43308;47.306;8.608;2023-05-20T08:58:30;12.05;;;9.75;;
57461;SDS011;43308;47.306;8.608;2023-05-20T09:00:56;16.10;;;10.82;;
57461;SDS011;43308;47.306;8.608;2023-05-20T09:03:26;23.25;;;11.57;;
57461;SDS011;43308;47.306;8.608;2023-05-20T09:05:52;13.38;;;11.20;;
57461;SDS011;43308;47.306;8.608;2023-05-20T09:08:18;11.85;;;10.75;;
57461;SDS011;43308;47.306;8.608;2023-05-20T09:10:50;11.68;;;10.57;;
57461;SDS011;43308;47.306;8.608;2023-05-20T09:13:16;12.45;;;11.15;;
57461;SDS011;43308;47.306;8.608;2023-05-20T09:15:42;12.98;;;11.77;;
57461;SDS011;43308;47.306;8.608;2023-05-20T09:18:07;12.27;;;11.07;;
57461;SDS011;43308;47.306;8.608;2023-05-20T09:20:34;12.63;;;11.32;;
57461;SDS011;43308;47.306;8.608;2023-05-20T09:23:05;12.73;;;11.45;;
57461;SDS011;43308;47.306;8.608;2023-05-20T09:25:33;11.93;;;10.90;;
57461;SDS011;43308;47.306;8.608;2023-05-20T09:27:59;11.85;;;10.55;;
57461;SDS011;43308;47.306;8.608;2023-05-20T09:30:25;12.48;;;11.18;;
57461;SDS011;43308;47.306;8.608;2023-05-20T09:32:51;11.38;;;10.27;;
57461;SDS011;43308;47.306;8.608;2023-05-20T09:35:19;10.98;;;9.98;;
57461;SDS011;43308;47.306;8.608;2023-05-20T09:37:46;12.95;;;11.63;;
57461;SDS011;43308;47.306;8.608;2023-05-20T09:40:12;11.23;;;10.13;;
57461;SDS011;43308;47.306;8.608;2023-05-20T09:42:44;13.32;;;11.55;;
57461;SDS011;43308;47.306;8.608;2023-05-20T09:45:21;12.02;;;10.85;;
57461;SDS011;43308;47.306;8.608;2023-05-20T09:47:49;12.07;;;10.95;;
57461;SDS011;43308;47.306;8.608;2023-05-20T09:50:16;11.68;;;10.68;;
57461;SDS011;43308;47.306;8.608;2023-05-20T09:52:42;12.65;;;11.45;;
57461;SDS011;43308;47.306;8.608;2023-05-20T09:55:08;11.07;;;10.07;;
57461;SDS011;43308;47.306;8.608;2023-05-20T09:57:37;11.68;;;10.32;;
57461;SDS011;43308;47.306;8.608;2023-05-20T10:00:04;11.90;;;10.65;;
57461;SDS011;43308;47.306;8.608;2023-05-20T10:02:39;11.27;;;10.15;;
57461;SDS011;43308;47.306;8.608;2023-05-20T10:05:10;11.43;;;10.40;;
57461;SDS011;43308;47.306;8.608;2023-05-20T10:10:48;12.95;;;10.10;;
57461;SDS011;43308;47.306;8.608;2023-05-20T10:20:47;10.88;;;9.88;;
57461;SDS011;43308;47.306;8.608;2023-05-20T10:23:23;11.90;;;10.70;;
57461;SDS011;43308;47.306;8.608;2023-05-20T10:25:53;11.48;;;10.45;;
57461;SDS011;43308;47.306;8.608;2023-05-20T10:28:33;11.48;;;10.27;;
57461;SDS011;43308;47.306;8.608;2023-05-20T10:31:00;11.57;;;10.10;;
57461;SDS011;43308;47.306;8.608;2023-05-20T10:33:26;11.48;;;10.38;;
57461;SDS011;43308;47.306;8.608;2023-05-20T10:35:53;11.75;;;10.55;;
57461;SDS011;43308;47.306;8.608;2023-05-20T10:38:22;11.70;;;10.60;;
57461;SDS011;43308;47.306;8.608;2023-05-20T10:40:47;10.60;;;9.43;;
57461;SDS011;43308;47.306;8.608;2023-05-20T10:43:14;12.18;;;11.00;;
57461;SDS011;43308;47.306;8.608;2023-05-20T10:45:46;10.25;;;9.35;;
57461;SDS011;43308;47.306;8.608;2023-05-20T10:48:19;10.85;;;9.85;;
57461;SDS011;43308;47.306;8.608;2023-05-20T10:50:47;12.30;;;11.10;;
57461;SDS011;43308;47.306;8.608;2023-05-20T10:53:13;11.25;;;10.15;;
57461;SDS011;43308;47.306;8.608;2023-05-20T10:55:40;12.05;;;10.73;;
57461;SDS011;43308;47.306;8.608;2023-05-20T10:58:12;11.70;;;10.60;;
57461;SDS011;43308;47.306;8.608;2023-05-20T11:00:38;19.17;;;12.65;;
57461;SDS011;43308;47.306;8.608;2023-05-20T11:03:05;12.50;;;10.63;;
57461;SDS011;43308;47.306;8.608;2023-05-20T11:05:31;12.48;;;10.98;;
57461;SDS011;43308;47.306;8.608;2023-05-20T11:08:01;11.80;;;10.77;;
57461;SDS011;43308;47.306;8.608;2023-05-20T11:10:28;12.10;;;11.05;;
57461;SDS011;43308;47.306;8.608;2023-05-20T11:12:54;11.15;;;10.05;;
57461;SDS011;43308;47.306;8.608;2023-05-20T11:15:21;14.15;;;10.82;;
57461;SDS011;43308;47.306;8.608;2023-05-20T11:17:56;11.70;;;10.55;;
57461;SDS011;43308;47.306;8.608;2023-05-20T11:20:24;11.57;;;10.48;;
57461;SDS011;43308;47.306;8.608;2023-05-20T11:22:50;11.73;;;10.63;;
57461;SDS011;43308;47.306;8.608;2023-05-20T11:25:17;11.73;;;10.70;;
57461;SDS011;43308;47.306;8.608;2023-05-20T11:27:43;11.40;;;10.32;;
57461;SDS011;43308;47.306;8.608;2023-05-20T11:30:13;12.23;;;11.02;;
57461;SDS011;43308;47.306;8.608;2023-05-20T11:32:43;12.18;;;11.07;;
57461;SDS011;43308;47.306;8.608;2023-05-20T11:35:24;11.68;;;10.43;;
57461;SDS011;43308;47.306;8.608;2023-05-20T11:38:01;11.95;;;10.85;;
57461;SDS011;43308;47.306;8.608;2023-05-20T11:40:27;9.30;;;8.48;;
57461;SDS011;43308;47.306;8.608;2023-05-20T11:42:55;11.02;;;9.90;;
57461;SDS011;43308;47.306;8.608;2023-05-20T11:45:22;11.48;;;10.38;;
57461;SDS011;43308;47.306;8.608;2023-05-20T11:47:58;9.68;;;8.88;;
57461;SDS011;43308;47.306;8.608;2023-05-20T11:50:25;9.95;;;9.13;;
57461;SDS011;43308;47.306;8.608;2023-05-20T11:52:55;10.52;;;9.63;;
57461;SDS011;43308;47.306;8.608;2023-05-20T11:55:23;10.82;;;9.73;;
57461;SDS011;43308;47.306;8.608;2023-05-20T11:57:49;9.63;;;8.75;;
57461;SDS011;43308;47.306;8.608;2023-05-20T12:00:15;10.48;;;9.57;;
57461;SDS011;43308;47.306;8.608;2023-05-20T12:02:40;10.65;;;9.75;;
57461;SDS011;43308;47.306;8.608;2023-05-20T12:05:06;11.00;;;10.00;;
57461;SDS011;43308;47.306;8.608;2023-05-20T12:07:32;10.50;;;9.65;;
57461;SDS011;43308;47.306;8.608;2023-05-20T12:09:58;15.10;;;8.77;;
57461;SDS011;43308;47.306;8.608;2023-05-20T12:12:23;10.20;;;9.27;;
57461;SDS011;43308;47.306;8.608;2023-05-20T12:14:49;10.88;;;9.80;;
57461;SDS011;43308;47.306;8.608;2023-05-20T12:17:15;10.15;;;9.15;;
57461;SDS011;43308;47.306;8.608;2023-05-20T12:19:41;11.35;;;8.70;;
57461;SDS011;43308;47.306;8.608;2023-05-20T12:22:06;9.63;;;8.73;;
57461;SDS011;43308;47.306;8.608;2023-05-20T12:24:32;9.95;;;8.82;;
57461;SDS011;43308;47.306;8.608;2023-05-20T12:26:57;10.73;;;9.55;;
57461;SDS011;43308;47.306;8.608;2023-05-20T12:29:23;10.02;;;9.23;;
57461;SDS011;43308;47.306;8.608;2023-05-20T12:31:48;9.93;;;9.02;;
57461;SDS011;43308;47.306;8.608;2023-05-20T12:34:14;9.55;;;8.75;;
57461;SDS011;43308;47.306;8.608;2023-05-20T12:36:40;10.77;;;9.77;;
57461;SDS011;43308;47.306;8.608;2023-05-20T12:39:05;11.02;;;9.93;;
57461;SDS011;43308;47.306;8.608;2023-05-20T12:41:31;10.32;;;9.43;;
57461;SDS011;43308;47.306;8.608;2023-05-20T12:43:57;10.93;;;9.82;;
57461;SDS011;43308;47.306;8.608;2023-05-20T12:46:22;9.73;;;8.82;;
57461;SDS011;43308;47.306;8.608;2023-05-20T12:48:48;10.55;;;9.55;;
57461;SDS011;43308;47.306;8.608;2023-05-20T12:51:13;10.45;;;9.48;;
57461;SDS011;43308;47.306;8.608;2023-05-20T12:53:39;9.98;;;9.13;;
57461;SDS011;43308;47.306;8.608;2023-05-20T12:56:04;10.15;;;9.15;;
57461;SDS011;43308;47.306;8.608;2023-05-20T12:58:30;9.70;;;8.75;;
57461;SDS011;43308;47.306;8.608;2023-05-20T13:00:56;9.07;;;8.20;;
57461;SDS011;43308;47.306;8.608;2023-05-20T13:03:21;10.13;;;9.23;;
57461;SDS011;43308;47.306;8.608;2023-05-20T13:05:47;9.07;;;8.27;;
57461;SDS011;43308;47.306;8.608;2023-05-20T13:08:12;9.05;;;8.20;;
57461;SDS011;43308;47.306;8.608;2023-05-20T13:10:38;9.73;;;8.73;;
57461;SDS011;43308;47.306;8.608;2023-05-20T13:13:04;10.05;;;9.15;;
57461;SDS011;43308;47.306;8.608;2023-05-20T13:15:30;10.20;;;9.20;;
57461;SDS011;43308;47.306;8.608;2023-05-20T13:17:57;10.73;;;9.73;;
57461;SDS011;43308;47.306;8.608;2023-05-20T13:20:25;10.18;;;9.27;;
57461;SDS011;43308;47.306;8.608;2023-05-20T13:22:51;10.73;;;9.73;;
57461;SDS011;43308;47.306;8.608;2023-05-20T13:25:17;9.70;;;8.90;;
57461;SDS011;43308;47.306;8.608;2023-05-20T13:27:42;9.70;;;8.70;;
57461;SDS011;43308;47.306;8.608;2023-05-20T13:30:08;9.95;;;9.05;;
57461;SDS011;43308;47.306;8.608;2023-05-20T13:32:33;9.98;;;9.07;;
57461;SDS011;43308;47.306;8.608;2023-05-20T13:34:59;10.30;;;9.40;;
57461;SDS011;43308;47.306;8.608;2023-05-20T13:37:25;9.48;;;8.65;;
57461;SDS011;43308;47.306;8.608;2023-05-20T13:39:50;9.55;;;8.65;;
57461;SDS011;43308;47.306;8.608;2023-05-20T13:42:16;9.70;;;8.77;;
57461;SDS011;43308;47.306;8.608;2023-05-20T13:44:41;10.60;;;9.60;;
57461;SDS011;43308;47.306;8.608;2023-05-20T13:47:07;10.23;;;9.35;;
57461;SDS011;43308;47.306;8.608;2023-05-20T13:49:32;9.15;;;8.35;;
57461;SDS011;43308;47.306;8.608;2023-05-20T13:51:58;11.32;;;10.23;;
57461;SDS011;43308;47.306;8.608;2023-05-20T13:54:24;10.63;;;9.65;;
57461;SDS011;43308;47.306;8.608;2023-05-20T13:56:49;10.35;;;9.43;;
57461;SDS011;43308;47.306;8.608;2023-05-20T13:59:15;9.70;;;8.77;;
57461;SDS011;43308;47.306;8.608;2023-05-20T14:01:41;9.90;;;9.00;;
57461;SDS011;43308;47.306;8.608;2023-05-20T14:04:09;9.15;;;8.25;;
57461;SDS011;43308;47.306;8.608;2023-05-20T14:06:36;10.23;;;9.32;;
57461;SDS011;43308;47.306;8.608;2023-05-20T14:09:02;11.63;;;10.18;;
57461;SDS011;43308;47.306;8.608;2023-05-20T14:11:28;10.05;;;9.10;;
57461;SDS011;43308;47.306;8.608;2023-05-20T14:13:54;11.27;;;10.07;;
57461;SDS011;43308;47.306;8.608;2023-05-20T14:16:19;12.32;;;10.27;;
57461;SDS011;43308;47.306;8.608;2023-05-20T14:18:45;10.38;;;9.48;;
57461;SDS011;43308;47.306;8.608;2023-05-20T14:21:10;10.40;;;9.45;;
57461;SDS011;43308;47.306;8.608;2023-05-20T14:23:36;10.82;;;9.75;;
57461;SDS011;43308;47.306;8.608;2023-05-20T14:26:02;10.07;;;9.15;;
57461;SDS011;43308;47.306;8.608;2023-05-20T14:28:27;11.68;;;10.63;;
57461;SDS011;43308;47.306;8.608;2023-05-20T14:30:53;10.50;;;9.50;;
57461;SDS011;43308;47.306;8.608;2023-05-20T14:33:18;9.02;;;8.23;;